createdAt,value
2022-10-31T00:00:05.826Z,25.00
2022-10-31T00:01:05.740Z,24.40
2022-10-31T00:02:05.769Z,29.30
2022-10-31T00:03:05.694Z,21.60
2022-10-31T00:04:05.673Z,22.10
2022-10-31T00:05:05.667Z,21.40
2022-10-31T00:06:05.626Z,25.30
2022-10-31T00:07:05.605Z,23.10
2022-10-31T00:08:05.580Z,19.90
2022-10-31T00:09:05.561Z,21.50
2022-10-31T00:10:05.534Z,22.40
2022-10-31T00:11:05.517Z,22.50
2022-10-31T00:12:05.492Z,20.20
2022-10-31T00:13:05.476Z,22.40
2022-10-31T00:14:05.448Z,25.50
2022-10-31T00:15:05.422Z,23.50
2022-10-31T00:16:05.404Z,22.80
2022-10-31T00:17:05.383Z,23.70
2022-10-31T00:18:05.360Z,21.90
2022-10-31T00:19:05.336Z,20.40
2022-10-31T00:20:05.315Z,21.80
2022-10-31T00:21:05.310Z,22.20
2022-10-31T00:22:05.270Z,19.90
2022-10-31T00:23:05.245Z,22.50
2022-10-31T00:24:05.226Z,21.70
2022-10-31T00:25:05.200Z,19.20
2022-10-31T00:26:05.192Z,24.90
2022-10-31T00:27:05.157Z,22.80
2022-10-31T00:28:05.218Z,21.60
2022-10-31T00:29:05.111Z,21.80
2022-10-31T00:30:05.093Z,18.40
2022-10-31T00:31:05.067Z,24.90
2022-10-31T00:32:05.046Z,22.80
2022-10-31T00:33:05.022Z,23.80
2022-10-31T00:34:05.000Z,24.30
2022-10-31T00:35:04.975Z,23.70
2022-10-31T00:36:04.956Z,22.00
2022-10-31T00:37:04.948Z,21.30
2022-10-31T00:38:04.909Z,22.20
2022-10-31T00:39:04.883Z,19.10
2022-10-31T00:40:04.865Z,21.00
2022-10-31T00:41:04.845Z,20.00
2022-10-31T00:42:04.823Z,21.00
2022-10-31T00:43:05.104Z,20.70
2022-10-31T00:44:04.773Z,21.80
2022-10-31T00:45:04.751Z,21.20
2022-10-31T00:46:04.734Z,20.10
2022-10-31T00:47:04.705Z,21.20
2022-10-31T00:48:04.684Z,23.60
2022-10-31T00:49:04.662Z,19.80
2022-10-31T00:50:04.638Z,18.40
2022-10-31T00:51:04.642Z,20.70
2022-10-31T00:52:04.595Z,18.10
2022-10-31T00:53:04.587Z,19.10
2022-10-31T00:54:04.548Z,17.50
2022-10-31T00:55:04.525Z,18.80
2022-10-31T00:56:04.506Z,20.40
2022-10-31T00:57:04.484Z,19.50
2022-10-31T00:58:04.835Z,16.50
2022-10-31T00:59:04.434Z,17.80
2022-10-31T01:00:04.415Z,18.10
2022-10-31T01:01:04.531Z,21.50
2022-10-31T01:02:04.457Z,16.50
2022-10-31T01:03:04.346Z,22.80
2022-10-31T01:04:04.322Z,20.60
2022-10-31T01:05:04.301Z,20.00
2022-10-31T01:06:04.279Z,17.30
2022-10-31T01:07:04.255Z,21.90
2022-10-31T01:08:04.237Z,21.60
2022-10-31T01:09:04.239Z,19.80
2022-10-31T01:10:04.186Z,20.10
2022-10-31T01:11:04.162Z,17.90
2022-10-31T01:12:04.146Z,20.30
2022-10-31T01:13:04.119Z,17.40
2022-10-31T01:14:04.097Z,19.20
2022-10-31T01:15:04.073Z,19.40
2022-10-31T01:16:04.053Z,18.80
2022-10-31T01:17:04.032Z,19.90
2022-10-31T01:18:04.008Z,16.20
2022-10-31T01:19:03.981Z,20.90
2022-10-31T01:20:03.960Z,20.80
2022-10-31T01:21:03.937Z,20.80
2022-10-31T01:22:03.914Z,17.30
2022-10-31T01:23:03.889Z,17.50
2022-10-31T01:24:03.870Z,19.00
2022-10-31T01:25:03.863Z,21.10
2022-10-31T01:26:03.823Z,19.40
2022-10-31T01:27:03.799Z,17.50
2022-10-31T01:28:03.782Z,17.00
2022-10-31T01:29:03.768Z,20.00
2022-10-31T01:30:03.734Z,17.80
2022-10-31T01:31:03.706Z,17.90
2022-10-31T01:32:03.686Z,18.40
2022-10-31T01:33:03.665Z,17.70
2022-10-31T01:34:03.650Z,18.30
2022-10-31T01:35:03.617Z,18.60
2022-10-31T01:36:03.596Z,17.70
2022-10-31T01:37:03.572Z,20.60
2022-10-31T01:38:03.552Z,18.10
2022-10-31T01:39:03.523Z,15.20
2022-10-31T01:40:03.504Z,23.30
2022-10-31T01:41:03.501Z,19.10
2022-10-31T01:42:03.458Z,21.70
2022-10-31T01:43:03.437Z,18.00
2022-10-31T01:44:03.415Z,21.50
2022-10-31T01:45:03.387Z,18.40
2022-10-31T01:46:03.364Z,25.00
2022-10-31T01:47:03.340Z,19.00
2022-10-31T01:48:03.321Z,18.10
2022-10-31T01:49:03.295Z,21.80
2022-10-31T01:50:03.273Z,27.10
2022-10-31T01:51:03.252Z,21.10
2022-10-31T01:52:03.226Z,21.00
2022-10-31T01:53:03.204Z,22.80
2022-10-31T01:54:03.178Z,18.20
2022-10-31T01:55:03.157Z,21.20
2022-10-31T01:56:03.137Z,21.70
2022-10-31T01:57:03.129Z,21.20
2022-10-31T01:58:03.689Z,20.10
2022-10-31T01:59:03.066Z,19.50
2022-10-31T02:00:03.041Z,21.20
2022-10-31T02:01:06.697Z,21.40
2022-10-31T02:02:03.163Z,24.00
2022-10-31T02:03:03.471Z,18.30
2022-10-31T02:04:02.948Z,20.70
2022-10-31T02:05:02.924Z,21.00
2022-10-31T02:06:02.905Z,19.10
2022-10-31T02:07:02.880Z,20.30
2022-10-31T02:08:02.858Z,18.90
2022-10-31T02:09:02.831Z,22.20
2022-10-31T02:10:02.812Z,20.80
2022-10-31T02:11:02.786Z,20.80
2022-10-31T02:12:02.769Z,19.90
2022-10-31T02:13:03.242Z,21.60
2022-10-31T02:14:02.716Z,19.60
2022-10-31T02:15:02.692Z,21.40
2022-10-31T02:16:02.673Z,21.90
2022-10-31T02:17:02.648Z,17.60
2022-10-31T02:18:02.876Z,22.90
2022-10-31T02:19:02.602Z,22.10
2022-10-31T02:20:02.578Z,18.50
2022-10-31T02:21:02.557Z,22.00
2022-10-31T02:22:02.533Z,20.20
2022-10-31T02:23:02.508Z,22.70
2022-10-31T02:24:02.490Z,19.70
2022-10-31T02:25:02.460Z,20.60
2022-10-31T02:26:02.439Z,20.10
2022-10-31T02:27:02.412Z,24.40
2022-10-31T02:28:02.919Z,20.60
2022-10-31T02:29:02.384Z,20.80
2022-10-31T02:30:02.348Z,20.60
2022-10-31T02:31:02.320Z,23.60
2022-10-31T02:32:02.298Z,21.90
2022-10-31T02:33:02.590Z,24.00
2022-10-31T02:34:02.249Z,25.50
2022-10-31T02:35:02.227Z,24.90
2022-10-31T02:36:02.212Z,21.70
2022-10-31T02:37:02.184Z,22.20
2022-10-31T02:38:02.164Z,24.30
2022-10-31T02:39:02.133Z,20.40
2022-10-31T02:40:02.113Z,25.40
2022-10-31T02:41:02.086Z,24.10
2022-10-31T02:42:02.063Z,20.70
2022-10-31T02:43:02.545Z,19.20
2022-10-31T02:44:02.015Z,17.90
2022-10-31T02:45:02.010Z,20.40
2022-10-31T02:46:01.974Z,19.20
2022-10-31T02:47:01.946Z,19.00
2022-10-31T02:48:02.182Z,22.80
2022-10-31T02:49:01.897Z,24.00
2022-10-31T02:50:01.876Z,24.00
2022-10-31T02:51:01.864Z,20.40
2022-10-31T02:52:01.830Z,22.90
2022-10-31T02:53:01.805Z,23.60
2022-10-31T02:54:01.781Z,19.90
2022-10-31T02:55:01.761Z,23.20
2022-10-31T02:56:01.734Z,26.50
2022-10-31T02:57:01.709Z,22.40
2022-10-31T02:58:02.138Z,20.20
2022-10-31T02:59:01.667Z,24.00
2022-10-31T03:00:01.658Z,23.10
2022-10-31T03:01:01.706Z,25.00
2022-10-31T03:02:01.934Z,21.90
2022-10-31T03:03:02.071Z,21.30
2022-10-31T03:04:01.548Z,21.60
2022-10-31T03:05:01.520Z,25.60
2022-10-31T03:06:01.498Z,22.00
2022-10-31T03:07:01.488Z,22.80
2022-10-31T03:08:01.449Z,18.40
2022-10-31T03:09:01.425Z,22.80
2022-10-31T03:10:01.410Z,22.10
2022-10-31T03:11:01.386Z,25.60
2022-10-31T03:12:01.356Z,23.10
2022-10-31T03:13:01.847Z,22.70
2022-10-31T03:14:01.310Z,20.50
2022-10-31T03:15:01.282Z,27.10
2022-10-31T03:16:01.262Z,26.00
2022-10-31T03:17:01.255Z,27.50
2022-10-31T03:18:01.652Z,24.50
2022-10-31T03:19:01.188Z,26.80
2022-10-31T03:20:01.164Z,23.50
2022-10-31T03:21:01.140Z,26.90
2022-10-31T03:22:01.121Z,22.70
2022-10-31T03:23:01.093Z,27.60
2022-10-31T03:24:01.070Z,27.00
2022-10-31T03:25:01.046Z,23.60
2022-10-31T03:26:01.022Z,24.60
2022-10-31T03:27:01.004Z,23.40
2022-10-31T03:28:01.234Z,26.60
2022-10-31T03:29:00.949Z,25.40
2022-10-31T03:30:00.924Z,30.20
2022-10-31T03:31:02.411Z,24.90
2022-10-31T03:32:00.878Z,23.20
2022-10-31T03:33:01.211Z,23.70
2022-10-31T03:34:00.835Z,25.40
2022-10-31T03:35:00.806Z,24.60
2022-10-31T03:36:00.784Z,25.20
2022-10-31T03:37:00.760Z,29.10
2022-10-31T03:38:04.180Z,24.70
2022-10-31T03:39:00.713Z,26.10
2022-10-31T03:40:00.699Z,25.50
2022-10-31T03:41:00.671Z,24.20
2022-10-31T03:42:00.639Z,25.30
2022-10-31T03:43:01.037Z,26.10
2022-10-31T03:44:00.594Z,24.50
2022-10-31T03:45:00.565Z,23.20
2022-10-31T03:46:00.542Z,24.40
2022-10-31T03:47:00.522Z,25.70
2022-10-31T03:48:00.784Z,22.90
2022-10-31T03:49:00.489Z,24.20
2022-10-31T03:50:00.450Z,22.90
2022-10-31T03:51:00.422Z,20.30
2022-10-31T03:52:00.402Z,27.20
2022-10-31T03:53:00.375Z,22.50
2022-10-31T03:54:00.350Z,25.30
2022-10-31T03:55:00.328Z,26.00
2022-10-31T03:56:00.304Z,22.20
2022-10-31T03:57:00.287Z,26.10
2022-10-31T03:58:00.786Z,29.00
2022-10-31T03:59:00.229Z,22.60
2022-10-31T04:00:00.208Z,25.20
2022-10-31T04:01:00.222Z,29.50
2022-10-31T04:02:00.351Z,27.00
2022-10-31T04:03:00.475Z,26.70
2022-10-31T04:04:00.108Z,26.50
2022-10-31T04:05:00.105Z,26.70
2022-10-31T04:06:00.064Z,24.50
2022-10-31T04:07:00.036Z,24.50
2022-10-31T04:08:00.016Z,24.00
2022-10-31T04:08:59.987Z,26.70
2022-10-31T04:09:59.966Z,23.50
2022-10-31T04:10:59.938Z,23.70
2022-10-31T04:11:59.917Z,25.10
2022-10-31T04:13:00.265Z,26.00
2022-10-31T04:13:59.867Z,29.10
2022-10-31T04:14:59.846Z,22.50
2022-10-31T04:15:59.820Z,22.50
2022-10-31T04:16:59.793Z,23.60
2022-10-31T04:18:00.089Z,23.70
2022-10-31T04:18:59.747Z,22.70
2022-10-31T04:19:59.725Z,32.90
2022-10-31T04:20:59.717Z,24.70
2022-10-31T04:21:59.674Z,28.10
2022-10-31T04:22:59.647Z,27.80
2022-10-31T04:23:59.626Z,23.50
2022-10-31T04:24:59.603Z,27.30
2022-10-31T04:25:59.578Z,21.90
2022-10-31T04:26:59.554Z,23.10
2022-10-31T04:27:59.899Z,23.50
2022-10-31T04:28:59.505Z,26.90
2022-10-31T04:29:59.479Z,24.70
2022-10-31T04:30:59.455Z,20.80
2022-10-31T04:31:59.431Z,25.50
2022-10-31T04:32:59.769Z,24.90
2022-10-31T04:33:59.385Z,26.60
2022-10-31T04:34:59.362Z,23.50
2022-10-31T04:35:59.337Z,22.80
2022-10-31T04:36:59.329Z,23.30
2022-10-31T04:37:59.284Z,23.50
2022-10-31T04:38:59.264Z,24.70
2022-10-31T04:39:59.234Z,22.10
2022-10-31T04:40:59.213Z,23.00
2022-10-31T04:41:59.185Z,23.30
2022-10-31T04:42:59.623Z,23.70
2022-10-31T04:43:59.135Z,21.30
2022-10-31T04:44:59.120Z,23.30
2022-10-31T04:45:59.091Z,24.30
2022-10-31T04:46:59.066Z,26.60
2022-10-31T04:47:59.332Z,25.00
2022-10-31T04:48:59.018Z,24.10
2022-10-31T04:49:58.994Z,24.30
2022-10-31T04:50:58.970Z,23.50
2022-10-31T04:51:58.942Z,24.90
2022-10-31T04:52:58.938Z,22.90
2022-10-31T04:53:58.896Z,25.70
2022-10-31T04:54:58.870Z,26.30
2022-10-31T04:55:58.850Z,24.70
2022-10-31T04:56:58.826Z,23.60
2022-10-31T04:57:59.264Z,22.10
2022-10-31T04:58:58.775Z,24.10
2022-10-31T04:59:58.749Z,23.60
2022-10-31T05:00:58.780Z,22.10
2022-10-31T05:01:58.836Z,24.10
2022-10-31T05:02:59.016Z,23.50
2022-10-31T05:03:58.649Z,24.90
2022-10-31T05:04:58.625Z,24.80
2022-10-31T05:05:58.600Z,25.40
2022-10-31T05:06:58.576Z,24.10
2022-10-31T05:07:58.554Z,24.70
2022-10-31T05:08:58.549Z,25.50
2022-10-31T05:09:58.502Z,23.60
2022-10-31T05:11:03.264Z,21.50
2022-10-31T05:11:58.455Z,27.30
2022-10-31T05:12:58.891Z,23.10
2022-10-31T05:13:58.405Z,22.30
2022-10-31T05:14:58.384Z,24.20
2022-10-31T05:15:58.356Z,24.50
2022-10-31T05:16:58.331Z,29.70
2022-10-31T05:17:58.848Z,26.50
2022-10-31T05:18:58.282Z,23.30
2022-10-31T05:19:58.256Z,25.20
2022-10-31T05:20:58.236Z,21.80
2022-10-31T05:21:58.208Z,23.40
2022-10-31T05:22:58.190Z,21.20
2022-10-31T05:23:58.162Z,20.60
2022-10-31T05:24:58.163Z,22.10
2022-10-31T05:25:58.107Z,18.70
2022-10-31T05:26:58.084Z,23.60
2022-10-31T05:27:58.345Z,20.40
2022-10-31T05:28:58.034Z,22.90
2022-10-31T05:29:58.008Z,21.70
2022-10-31T05:30:57.984Z,24.20
2022-10-31T05:31:57.963Z,26.10
2022-10-31T05:32:58.194Z,20.10
2022-10-31T05:33:57.912Z,24.30
2022-10-31T05:34:57.888Z,24.90
2022-10-31T05:35:57.864Z,22.40
2022-10-31T05:36:57.838Z,21.80
2022-10-31T05:37:57.812Z,23.30
2022-10-31T05:38:57.792Z,24.00
2022-10-31T05:39:57.764Z,21.90
2022-10-31T05:40:57.757Z,19.20
2022-10-31T05:41:57.744Z,21.20
2022-10-31T05:42:58.082Z,22.50
2022-10-31T05:43:57.664Z,20.20
2022-10-31T05:44:57.640Z,22.30
2022-10-31T05:45:57.620Z,22.20
2022-10-31T05:46:57.588Z,20.70
2022-10-31T05:47:57.817Z,21.90
2022-10-31T05:49:01.794Z,21.30
2022-10-31T05:49:57.519Z,24.30
2022-10-31T05:50:57.492Z,26.70
2022-10-31T05:51:57.466Z,24.90
2022-10-31T05:52:57.446Z,21.40
2022-10-31T05:53:57.417Z,25.60
2022-10-31T05:54:57.391Z,22.80
2022-10-31T05:55:57.366Z,21.30
2022-10-31T05:56:57.365Z,23.40
2022-10-31T05:57:57.567Z,21.60
2022-10-31T05:58:57.295Z,24.00
2022-10-31T05:59:57.268Z,23.10
2022-10-31T06:00:57.246Z,23.40
2022-10-31T06:01:57.304Z,23.80
2022-10-31T06:02:57.267Z,21.50
2022-10-31T06:03:57.169Z,22.90
2022-10-31T06:04:57.265Z,20.50
2022-10-31T06:05:57.120Z,23.00
2022-10-31T06:06:57.098Z,20.20
2022-10-31T06:07:57.384Z,20.80
2022-10-31T06:08:57.050Z,21.30
2022-10-31T06:09:57.028Z,19.70
2022-10-31T06:10:57.001Z,20.60
2022-10-31T06:11:56.973Z,22.00
2022-10-31T06:12:56.967Z,23.20
2022-10-31T06:13:56.922Z,20.20
2022-10-31T06:14:56.898Z,23.00
2022-10-31T06:15:56.875Z,23.20
2022-10-31T06:16:56.850Z,25.50
2022-10-31T06:17:57.016Z,24.80
2022-10-31T06:18:56.803Z,25.40
2022-10-31T06:19:56.775Z,23.80
2022-10-31T06:20:56.755Z,23.40
2022-10-31T06:21:56.725Z,24.00
2022-10-31T06:22:56.929Z,22.70
2022-10-31T06:23:56.677Z,22.20
2022-10-31T06:24:56.655Z,26.50
2022-10-31T06:25:56.628Z,23.00
2022-10-31T06:26:56.603Z,24.00
2022-10-31T06:27:56.640Z,24.80
2022-10-31T06:29:01.354Z,26.00
2022-10-31T06:29:56.530Z,24.50
2022-10-31T06:30:56.503Z,25.60
2022-10-31T06:31:56.479Z,27.10
2022-10-31T06:32:56.456Z,22.20
2022-10-31T06:33:56.429Z,19.80
2022-10-31T06:34:56.404Z,22.20
2022-10-31T06:35:56.377Z,23.30
2022-10-31T06:36:56.356Z,26.80
2022-10-31T06:37:56.327Z,27.70
2022-10-31T06:38:56.304Z,22.00
2022-10-31T06:39:56.277Z,26.30
2022-10-31T06:40:56.255Z,23.70
2022-10-31T06:41:56.233Z,24.60
2022-10-31T06:42:56.204Z,25.30
2022-10-31T06:43:56.179Z,27.30
2022-10-31T06:44:56.184Z,25.60
2022-10-31T06:45:56.127Z,26.60
2022-10-31T06:46:56.105Z,25.10
2022-10-31T06:48:15.893Z,25.30
2022-10-31T06:48:56.054Z,26.40
2022-10-31T06:49:56.026Z,25.70
2022-10-31T06:50:59.649Z,24.00
2022-10-31T06:51:55.978Z,22.10
2022-10-31T06:52:56.027Z,25.20
2022-10-31T06:53:55.930Z,26.10
2022-10-31T06:54:55.907Z,29.90
2022-10-31T06:55:55.882Z,27.10
2022-10-31T06:56:55.856Z,29.00
2022-10-31T06:57:58.877Z,24.50
2022-10-31T06:58:55.805Z,25.40
2022-10-31T06:59:55.784Z,25.70
2022-10-31T07:00:55.828Z,23.10
2022-10-31T07:01:55.883Z,21.50
2022-10-31T07:02:55.713Z,21.20
2022-10-31T07:03:55.679Z,23.40
2022-10-31T07:04:55.655Z,21.20
2022-10-31T07:05:55.629Z,23.50
2022-10-31T07:06:55.608Z,25.60
2022-10-31T07:07:55.580Z,27.40
2022-10-31T07:08:55.555Z,21.20
2022-10-31T07:09:55.529Z,20.00
2022-10-31T07:10:55.507Z,21.30
2022-10-31T07:11:55.479Z,15.00
2022-10-31T07:12:55.458Z,17.00
2022-10-31T07:13:55.430Z,14.40
2022-10-31T07:14:55.407Z,15.30
2022-10-31T07:15:55.420Z,13.10
2022-10-31T07:16:55.387Z,14.00
2022-10-31T07:17:55.341Z,15.20
2022-10-31T07:18:55.307Z,14.40
2022-10-31T07:19:55.279Z,13.40
2022-10-31T07:20:55.258Z,13.00
2022-10-31T07:21:55.243Z,13.10
2022-10-31T07:22:55.208Z,12.30
2022-10-31T07:23:55.211Z,14.10
2022-10-31T07:24:55.158Z,17.10
2022-10-31T07:25:55.132Z,14.50
2022-10-31T07:26:55.220Z,16.40
2022-10-31T07:27:55.086Z,16.20
2022-10-31T07:28:55.058Z,12.60
2022-10-31T07:29:55.032Z,17.30
2022-10-31T07:30:55.037Z,16.00
2022-10-31T07:31:54.981Z,14.10
2022-10-31T07:32:54.977Z,12.90
2022-10-31T07:33:54.930Z,13.90
2022-10-31T07:34:54.911Z,13.40
2022-10-31T07:35:54.882Z,22.40
2022-10-31T07:36:54.858Z,15.10
2022-10-31T07:37:54.831Z,16.30
2022-10-31T07:38:54.808Z,14.20
2022-10-31T07:39:54.781Z,14.80
2022-10-31T07:40:54.759Z,17.50
2022-10-31T07:41:54.737Z,14.80
2022-10-31T07:42:54.728Z,16.60
2022-10-31T07:43:54.759Z,15.10
2022-10-31T07:44:56.862Z,18.90
2022-10-31T07:45:54.633Z,19.80
2022-10-31T07:46:54.609Z,22.00
2022-10-31T07:47:54.584Z,17.80
2022-10-31T07:48:54.577Z,16.70
2022-10-31T07:49:54.532Z,17.10
2022-10-31T07:50:54.511Z,17.70
2022-10-31T07:51:54.483Z,17.10
2022-10-31T07:52:54.463Z,15.80
2022-10-31T07:53:54.434Z,17.50
2022-10-31T07:54:54.410Z,21.80
2022-10-31T07:55:54.382Z,14.80
2022-10-31T07:56:54.362Z,17.00
2022-10-31T07:57:54.332Z,17.70
2022-10-31T07:58:54.310Z,16.90
2022-10-31T07:59:54.290Z,19.00
2022-10-31T08:00:54.376Z,20.40
2022-10-31T08:01:54.241Z,19.40
2022-10-31T08:02:54.215Z,17.10
2022-10-31T08:03:54.187Z,16.20
2022-10-31T08:04:57.176Z,20.50
2022-10-31T08:05:54.139Z,19.50
2022-10-31T08:06:54.114Z,25.10
2022-10-31T08:07:54.088Z,20.10
2022-10-31T08:08:54.064Z,20.70
2022-10-31T08:09:54.038Z,21.90
2022-10-31T08:10:54.016Z,20.00
2022-10-31T08:11:53.992Z,22.10
2022-10-31T08:12:53.967Z,31.40
2022-10-31T08:13:53.938Z,24.70
2022-10-31T08:14:53.914Z,28.30
2022-10-31T08:15:53.887Z,21.70
2022-10-31T08:16:53.865Z,25.20
2022-10-31T08:17:53.902Z,25.40
2022-10-31T08:18:53.817Z,32.80
2022-10-31T08:19:53.799Z,24.80
2022-10-31T08:20:53.786Z,24.50
2022-10-31T08:21:53.743Z,27.90
2022-10-31T08:22:53.719Z,29.40
2022-10-31T08:23:53.690Z,29.00
2022-10-31T08:24:53.742Z,28.10
2022-10-31T08:25:53.642Z,31.10
2022-10-31T08:26:53.620Z,28.70
2022-10-31T08:27:53.634Z,31.30
2022-10-31T08:28:53.570Z,22.60
2022-10-31T08:29:53.546Z,19.70
2022-10-31T08:30:53.520Z,22.20
2022-10-31T08:31:53.494Z,21.80
2022-10-31T08:32:53.478Z,20.40
2022-10-31T08:33:53.446Z,19.10
2022-10-31T08:34:53.420Z,22.60
2022-10-31T08:35:53.517Z,35.30
2022-10-31T08:36:53.391Z,20.00
2022-10-31T08:37:53.394Z,21.70
2022-10-31T08:38:57.717Z,19.30
2022-10-31T08:39:53.300Z,21.30
2022-10-31T08:40:53.280Z,17.20
2022-10-31T08:41:53.260Z,21.20
2022-10-31T08:42:53.227Z,22.00
2022-10-31T08:43:53.200Z,19.40
2022-10-31T08:44:53.177Z,21.90
2022-10-31T08:45:53.152Z,20.90
2022-10-31T08:46:53.128Z,25.70
2022-10-31T08:47:53.140Z,23.40
2022-10-31T08:48:53.077Z,21.40
2022-10-31T08:49:53.119Z,23.70
2022-10-31T08:50:53.029Z,25.60
2022-10-31T08:51:53.050Z,26.20
2022-10-31T08:53:04.665Z,28.20
2022-10-31T08:53:52.959Z,24.00
2022-10-31T08:54:52.930Z,26.90
2022-10-31T08:55:52.909Z,27.20
2022-10-31T08:56:52.883Z,25.80
2022-10-31T08:57:52.897Z,28.60
2022-10-31T08:58:52.833Z,30.50
2022-10-31T08:59:52.809Z,26.30
2022-10-31T09:00:52.908Z,22.90
2022-10-31T09:01:53.052Z,27.40
2022-10-31T09:02:52.862Z,24.90
2022-10-31T09:03:52.798Z,22.80
2022-10-31T09:04:52.765Z,27.70
2022-10-31T09:05:52.771Z,28.30
2022-10-31T09:07:22.096Z,26.40
2022-10-31T09:07:52.641Z,27.20
2022-10-31T09:08:52.737Z,24.10
2022-10-31T09:09:52.568Z,29.40
2022-10-31T09:10:52.605Z,27.40
2022-10-31T09:11:52.521Z,30.90
2022-10-31T09:12:52.495Z,27.70
2022-10-31T09:13:52.470Z,33.10
2022-10-31T09:14:52.447Z,33.40
2022-10-31T09:15:52.435Z,29.50
2022-10-31T09:16:52.420Z,29.20
2022-10-31T09:17:52.454Z,29.80
2022-10-31T09:18:52.349Z,29.90
2022-10-31T09:19:52.329Z,31.70
2022-10-31T09:20:52.306Z,29.10
2022-10-31T09:21:52.286Z,28.80
2022-10-31T09:22:52.273Z,31.40
2022-10-31T09:23:52.234Z,30.10
2022-10-31T09:24:52.231Z,28.60
2022-10-31T09:25:52.247Z,25.20
2022-10-31T09:26:52.191Z,30.10
2022-10-31T09:27:52.258Z,28.70
2022-10-31T09:28:52.166Z,27.10
2022-10-31T09:29:52.093Z,30.00
2022-10-31T09:30:52.096Z,30.90
2022-10-31T09:31:52.113Z,27.20
2022-10-31T09:32:52.127Z,24.30
2022-10-31T09:33:52.080Z,28.00
2022-10-31T09:34:52.036Z,24.20
2022-10-31T09:35:52.027Z,25.70
2022-10-31T09:36:51.925Z,27.10
2022-10-31T09:37:51.943Z,26.50
2022-10-31T09:38:51.878Z,24.60
2022-10-31T09:39:51.859Z,25.10
2022-10-31T09:40:51.850Z,21.90
2022-10-31T09:41:56.189Z,26.50
2022-10-31T09:42:51.785Z,26.70
2022-10-31T09:43:51.767Z,23.30
2022-10-31T09:44:51.848Z,22.60
2022-10-31T09:45:51.717Z,23.30
2022-10-31T09:46:51.694Z,21.80
2022-10-31T09:47:51.810Z,20.70
2022-10-31T09:48:51.654Z,21.30
2022-10-31T09:49:51.678Z,24.80
2022-10-31T09:50:51.603Z,23.00
2022-10-31T09:51:53.110Z,26.40
2022-10-31T09:52:51.563Z,22.00
2022-10-31T09:53:51.538Z,22.70
2022-10-31T09:54:51.514Z,21.90
2022-10-31T09:55:51.495Z,21.30
2022-10-31T09:56:51.487Z,21.90
2022-10-31T09:57:51.447Z,18.90
2022-10-31T09:58:51.426Z,22.30
2022-10-31T09:59:51.403Z,21.80
2022-10-31T10:00:51.443Z,18.20
2022-10-31T10:01:51.559Z,20.40
2022-10-31T10:02:51.336Z,21.40
2022-10-31T10:03:51.317Z,19.60
2022-10-31T10:04:51.295Z,25.60
2022-10-31T10:05:51.270Z,22.00
2022-10-31T10:06:51.248Z,22.60
2022-10-31T10:07:51.224Z,20.20
2022-10-31T10:08:51.207Z,21.30
2022-10-31T10:09:51.607Z,22.00
2022-10-31T10:10:51.155Z,21.70
2022-10-31T10:11:51.135Z,24.00
2022-10-31T10:12:51.129Z,21.20
2022-10-31T10:13:51.089Z,25.40
2022-10-31T10:14:51.067Z,19.80
2022-10-31T10:15:51.122Z,22.10
2022-10-31T10:16:51.022Z,21.50
2022-10-31T10:17:51.002Z,22.60
2022-10-31T10:18:50.980Z,22.30
2022-10-31T10:19:50.957Z,23.60
2022-10-31T10:20:50.934Z,21.20
2022-10-31T10:21:50.912Z,26.60
2022-10-31T10:22:50.888Z,22.00
2022-10-31T10:23:50.872Z,22.20
2022-10-31T10:24:50.851Z,19.70
2022-10-31T10:25:50.825Z,23.00
2022-10-31T10:26:50.799Z,22.80
2022-10-31T10:27:50.858Z,21.90
2022-10-31T10:28:50.779Z,19.50
2022-10-31T10:29:50.735Z,25.80
2022-10-31T10:30:50.713Z,22.30
2022-10-31T10:31:50.693Z,21.90
2022-10-31T10:32:52.124Z,23.60
2022-10-31T10:33:50.646Z,21.40
2022-10-31T10:34:50.624Z,22.10
2022-10-31T10:35:50.605Z,22.70
2022-10-31T10:36:50.578Z,24.40
2022-10-31T10:37:50.559Z,24.80
2022-10-31T10:38:50.537Z,22.90
2022-10-31T10:39:50.516Z,25.40
2022-10-31T10:40:50.496Z,26.70
2022-10-31T10:41:50.473Z,22.40
2022-10-31T10:42:50.448Z,25.80
2022-10-31T10:43:50.431Z,20.60
2022-10-31T10:44:50.426Z,24.00
2022-10-31T10:45:50.384Z,29.10
2022-10-31T10:46:50.358Z,26.40
2022-10-31T10:47:50.339Z,25.90
2022-10-31T10:48:50.316Z,31.50
2022-10-31T10:49:50.301Z,24.70
2022-10-31T10:50:50.279Z,23.30
2022-10-31T10:52:51.135Z,22.30
2022-10-31T10:53:50.209Z,25.90
2022-10-31T10:54:50.186Z,25.30
2022-10-31T10:55:50.164Z,26.50
2022-10-31T10:56:50.146Z,28.30
2022-10-31T10:57:50.121Z,24.30
2022-10-31T10:58:50.098Z,25.60
2022-10-31T10:59:50.076Z,26.00
2022-10-31T11:00:50.338Z,26.50
2022-10-31T11:01:50.036Z,23.60
2022-10-31T11:02:50.014Z,23.20
2022-10-31T11:03:49.988Z,24.70
2022-10-31T11:04:49.964Z,27.30
2022-10-31T11:05:49.977Z,27.40
2022-10-31T11:06:49.922Z,29.30
2022-10-31T11:07:49.899Z,24.80
2022-10-31T11:08:49.878Z,28.70
2022-10-31T11:09:49.880Z,31.10
2022-10-31T11:10:49.833Z,28.50
2022-10-31T11:11:49.811Z,31.00
2022-10-31T11:12:49.788Z,25.80
2022-10-31T11:13:49.766Z,29.00
2022-10-31T11:14:49.750Z,30.10
2022-10-31T11:15:49.801Z,31.00
2022-10-31T11:16:49.717Z,30.60
2022-10-31T11:17:49.685Z,35.20
2022-10-31T11:18:49.730Z,28.80
2022-10-31T11:19:49.634Z,29.30
2022-10-31T11:20:49.611Z,32.00
2022-10-31T11:21:52.809Z,28.30
2022-10-31T11:22:49.565Z,33.80
2022-10-31T11:23:49.546Z,30.50
2022-10-31T11:24:49.524Z,30.10
2022-10-31T11:25:49.500Z,29.20
2022-10-31T11:26:49.477Z,32.50
2022-10-31T11:27:49.457Z,33.70
2022-10-31T11:28:49.432Z,31.10
2022-10-31T11:29:49.416Z,33.70
2022-10-31T11:30:49.388Z,32.60
2022-10-31T11:31:49.369Z,34.50
2022-10-31T11:32:49.363Z,30.70
2022-10-31T11:33:49.323Z,34.20
2022-10-31T11:34:49.306Z,32.80
2022-10-31T11:35:52.072Z,36.30
2022-10-31T11:36:49.259Z,38.00
2022-10-31T11:37:49.239Z,38.80
2022-10-31T11:38:49.216Z,35.40
2022-10-31T11:39:49.196Z,31.90
2022-10-31T11:40:49.169Z,34.10
2022-10-31T11:41:49.209Z,36.70
2022-10-31T11:42:49.126Z,35.60
2022-10-31T11:43:49.108Z,34.80
2022-10-31T11:44:49.079Z,36.10
2022-10-31T11:45:49.057Z,38.10
2022-10-31T11:46:49.034Z,34.10
2022-10-31T11:47:49.014Z,36.90
2022-10-31T11:48:49.009Z,34.70
2022-10-31T11:49:48.969Z,31.80
2022-10-31T11:50:48.947Z,35.20
2022-10-31T11:51:48.929Z,35.00
2022-10-31T11:52:48.931Z,34.20
2022-10-31T11:53:48.879Z,35.30
2022-10-31T11:54:48.885Z,31.60
2022-10-31T11:55:48.838Z,32.80
2022-10-31T11:56:48.814Z,34.60
2022-10-31T11:57:48.795Z,33.20
2022-10-31T11:58:48.769Z,34.10
2022-10-31T11:59:48.749Z,38.50
2022-10-31T12:00:48.735Z,34.00
2022-10-31T12:01:48.914Z,31.70
2022-10-31T12:02:48.723Z,31.80
2022-10-31T12:03:48.661Z,32.80
2022-10-31T12:04:48.658Z,34.90
2022-10-31T12:05:48.620Z,34.10
2022-10-31T12:06:48.622Z,38.00
2022-10-31T12:07:48.578Z,33.20
2022-10-31T12:08:48.579Z,37.40
2022-10-31T12:09:48.526Z,37.80
2022-10-31T12:10:48.517Z,41.80
2022-10-31T12:11:48.483Z,37.20
2022-10-31T12:12:48.462Z,39.80
2022-10-31T12:13:48.440Z,37.80
2022-10-31T12:14:48.419Z,41.30
2022-10-31T12:15:48.400Z,42.50
2022-10-31T12:16:48.372Z,38.40
2022-10-31T12:17:48.417Z,38.00
2022-10-31T12:18:48.328Z,39.30
2022-10-31T12:19:50.175Z,37.90
2022-10-31T12:20:48.302Z,39.60
2022-10-31T12:21:48.276Z,43.00
2022-10-31T12:22:48.242Z,38.10
2022-10-31T12:23:48.227Z,39.50
2022-10-31T12:24:48.194Z,38.60
2022-10-31T12:25:48.177Z,44.90
2022-10-31T12:26:48.154Z,37.20
2022-10-31T12:27:48.131Z,37.50
2022-10-31T12:28:52.642Z,37.60
2022-10-31T12:29:48.086Z,38.80
2022-10-31T12:30:48.064Z,34.70
2022-10-31T12:31:48.053Z,38.80
2022-10-31T12:32:48.020Z,38.70
2022-10-31T12:33:47.999Z,35.50
2022-10-31T12:34:49.220Z,40.50
2022-10-31T12:35:47.958Z,36.70
2022-10-31T12:36:47.948Z,43.50
2022-10-31T12:37:47.922Z,39.60
2022-10-31T12:38:47.892Z,40.30
2022-10-31T12:39:47.871Z,40.10
2022-10-31T12:40:47.847Z,42.20
2022-10-31T12:41:47.823Z,40.80
2022-10-31T12:42:47.802Z,37.20
2022-10-31T12:43:47.780Z,41.20
2022-10-31T12:44:47.758Z,35.50
2022-10-31T12:45:47.744Z,38.60
2022-10-31T12:46:47.721Z,36.60
2022-10-31T12:47:47.691Z,38.80
2022-10-31T12:48:47.674Z,41.00
2022-10-31T12:49:47.659Z,37.60
2022-10-31T12:50:47.634Z,37.50
2022-10-31T12:51:47.606Z,39.20
2022-10-31T12:52:47.600Z,37.60